sensor_id;sensor_type;location;lat;lon;timestamp;pressure;altitude;pressure_sealevel;temperature;humidity
30873;BME280;17579;42.690;2.586;2022-09-09T00:01:34;97144.94;;;23.54;38.78
30873;BME280;17579;42.690;2.586;2022-09-09T00:04:12;97145.31;;;23.58;39.01
30873;BME280;17579;42.690;2.586;2022-09-09T00:06:46;97148.25;;;23.56;38.79
30873;BME280;17579;42.690;2.586;2022-09-09T00:09:19;97154.69;;;23.55;38.90
30873;BME280;17579;42.690;2.586;2022-09-09T00:11:52;97148.09;;;23.51;38.89
30873;BME280;17579;42.690;2.586;2022-09-09T00:20:13;97142.69;;;23.51;39.25
30873;BME280;17579;42.690;2.586;2022-09-09T00:23:00;97146.34;;;23.45;39.25
30873;BME280;17579;42.690;2.586;2022-09-09T00:25:42;97146.56;;;23.43;38.97
30873;BME280;17579;42.690;2.586;2022-09-09T00:28:18;97137.63;;;23.43;39.19
30873;BME280;17579;42.690;2.586;2022-09-09T00:30:44;97140.69;;;23.46;39.12
30873;BME280;17579;42.690;2.586;2022-09-09T00:33:15;97147.72;;;23.47;39.36
30873;BME280;17579;42.690;2.586;2022-09-09T00:35:48;97136.34;;;23.45;39.15
30873;BME280;17579;42.690;2.586;2022-09-09T00:38:35;97136.44;;;23.39;38.81
30873;BME280;17579;42.690;2.586;2022-09-09T00:41:14;97136.19;;;23.40;38.97
30873;BME280;17579;42.690;2.586;2022-09-09T00:43:49;97133.72;;;23.39;39.00
30873;BME280;17579;42.690;2.586;2022-09-09T00:46:41;97129.13;;;23.27;39.09
30873;BME280;17579;42.690;2.586;2022-09-09T00:49:39;97128.78;;;23.24;39.02
30873;BME280;17579;42.690;2.586;2022-09-09T00:52:30;97134.41;;;23.22;39.18
30873;BME280;17579;42.690;2.586;2022-09-09T00:55:10;97125.13;;;23.18;39.28
30873;BME280;17579;42.690;2.586;2022-09-09T00:57:40;97125.69;;;23.20;39.64
30873;BME280;17579;42.690;2.586;2022-09-09T01:00:22;97121.69;;;23.11;39.14
30873;BME280;17579;42.690;2.586;2022-09-09T01:06:16;97117.09;;;23.11;39.45
30873;BME280;17579;42.690;2.586;2022-09-09T01:09:07;97121.88;;;23.09;39.06
30873;BME280;17579;42.690;2.586;2022-09-09T01:11:43;97119.03;;;23.04;39.67
30873;BME280;17579;42.690;2.586;2022-09-09T01:14:50;97112.09;;;22.96;39.74
30873;BME280;17579;42.690;2.586;2022-09-09T01:17:22;97113.63;;;23.04;39.69
30873;BME280;17579;42.690;2.586;2022-09-09T01:23:05;97110.44;;;22.95;39.74
30873;BME280;17579;42.690;2.586;2022-09-09T01:28:33;97106.25;;;22.99;39.93
30873;BME280;17579;42.690;2.586;2022-09-09T01:31:03;97101.53;;;22.95;39.63
30873;BME280;17579;42.690;2.586;2022-09-09T01:33:29;97099.06;;;22.93;40.10
30873;BME280;17579;42.690;2.586;2022-09-09T01:35:59;97095.53;;;22.93;40.00
30873;BME280;17579;42.690;2.586;2022-09-09T01:38:27;97090.97;;;22.93;39.83
30873;BME280;17579;42.690;2.586;2022-09-09T01:40:54;97090.75;;;22.95;39.97
30873;BME280;17579;42.690;2.586;2022-09-09T01:43:21;97087.81;;;22.96;40.00
30873;BME280;17579;42.690;2.586;2022-09-09T01:45:49;97097.34;;;22.99;39.64
30873;BME280;17579;42.690;2.586;2022-09-09T01:48:17;97098.75;;;23.01;39.92
30873;BME280;17579;42.690;2.586;2022-09-09T01:50:44;97097.47;;;23.04;39.52
30873;BME280;17579;42.690;2.586;2022-09-09T01:53:10;97097.69;;;23.02;39.49
30873;BME280;17579;42.690;2.586;2022-09-09T01:55:39;97102.72;;;22.99;39.46
30873;BME280;17579;42.690;2.586;2022-09-09T02:01:18;97092.09;;;22.86;39.46
30873;BME280;17579;42.690;2.586;2022-09-09T02:03:52;97097.16;;;22.82;39.68
30873;BME280;17579;42.690;2.586;2022-09-09T02:06:34;97100.59;;;22.71;39.57
30873;BME280;17579;42.690;2.586;2022-09-09T02:09:02;97109.50;;;22.71;40.10
30873;BME280;17579;42.690;2.586;2022-09-09T02:11:30;97109.97;;;22.68;40.19
30873;BME280;17579;42.690;2.586;2022-09-09T02:14:00;97107.13;;;22.63;40.41
30873;BME280;17579;42.690;2.586;2022-09-09T02:16:40;97110.28;;;22.60;40.19
30873;BME280;17579;42.690;2.586;2022-09-09T02:19:18;97110.88;;;22.62;40.00
30873;BME280;17579;42.690;2.586;2022-09-09T02:21:52;97113.72;;;22.67;40.11
30873;BME280;17579;42.690;2.586;2022-09-09T02:24:19;97115.44;;;22.61;40.10
30873;BME280;17579;42.690;2.586;2022-09-09T02:26:47;97122.47;;;22.62;40.17
30873;BME280;17579;42.690;2.586;2022-09-09T02:29:24;97113.19;;;22.58;40.33
30873;BME280;17579;42.690;2.586;2022-09-09T02:31:51;97118.72;;;22.63;40.64
30873;BME280;17579;42.690;2.586;2022-09-09T02:34:22;97115.00;;;22.64;40.61
30873;BME280;17579;42.690;2.586;2022-09-09T02:36:50;97122.63;;;22.67;40.26
30873;BME280;17579;42.690;2.586;2022-09-09T02:39:19;97117.00;;;22.69;40.52
30873;BME280;17579;42.690;2.586;2022-09-09T02:41:44;97127.34;;;22.72;40.57
30873;BME280;17579;42.690;2.586;2022-09-09T02:44:15;97128.38;;;22.71;40.27
30873;BME280;17579;42.690;2.586;2022-09-09T02:47:08;97131.28;;;22.70;40.65
30873;BME280;17579;42.690;2.586;2022-09-09T02:52:58;97127.34;;;22.72;40.41
30873;BME280;17579;42.690;2.586;2022-09-09T02:55:39;97125.09;;;22.69;41.04
30873;BME280;17579;42.690;2.586;2022-09-09T02:58:08;97132.13;;;22.70;40.97
30873;BME280;17579;42.690;2.586;2022-09-09T03:00:35;97124.06;;;22.70;41.10
30873;BME280;17579;42.690;2.586;2022-09-09T03:03:06;97129.44;;;22.70;41.24
30873;BME280;17579;42.690;2.586;2022-09-09T03:05:32;97130.84;;;22.73;41.34
30873;BME280;17579;42.690;2.586;2022-09-09T03:07:58;97125.44;;;22.73;41.31
30873;BME280;17579;42.690;2.586;2022-09-09T03:10:24;97123.13;;;22.76;41.52
30873;BME280;17579;42.690;2.586;2022-09-09T03:12:49;97126.88;;;22.75;41.33
30873;BME280;17579;42.690;2.586;2022-09-09T03:15:16;97125.03;;;22.76;41.29
30873;BME280;17579;42.690;2.586;2022-09-09T03:17:41;97121.03;;;22.78;41.66
30873;BME280;17579;42.690;2.586;2022-09-09T03:20:07;97125.59;;;22.78;41.49
30873;BME280;17579;42.690;2.586;2022-09-09T03:22:34;97123.94;;;22.77;41.78
30873;BME280;17579;42.690;2.586;2022-09-09T03:25:00;97131.22;;;22.76;41.64
30873;BME280;17579;42.690;2.586;2022-09-09T03:27:28;97137.19;;;22.78;41.33
30873;BME280;17579;42.690;2.586;2022-09-09T03:29:53;97134.72;;;22.77;41.60
30873;BME280;17579;42.690;2.586;2022-09-09T03:32:20;97146.38;;;22.77;41.40
30873;BME280;17579;42.690;2.586;2022-09-09T03:34:48;97142.00;;;22.76;41.40
30873;BME280;17579;42.690;2.586;2022-09-09T03:37:16;97127.72;;;22.76;41.48
30873;BME280;17579;42.690;2.586;2022-09-09T03:39:42;97128.75;;;22.75;41.78
30873;BME280;17579;42.690;2.586;2022-09-09T03:42:08;97129.56;;;22.75;41.56
30873;BME280;17579;42.690;2.586;2022-09-09T03:44:33;97133.91;;;22.76;41.42
30873;BME280;17579;42.690;2.586;2022-09-09T03:46:59;97132.25;;;22.75;41.55
30873;BME280;17579;42.690;2.586;2022-09-09T03:49:26;97130.41;;;22.76;41.33
30873;BME280;17579;42.690;2.586;2022-09-09T03:51:55;97127.34;;;22.72;41.48
30873;BME280;17579;42.690;2.586;2022-09-09T03:54:22;97136.34;;;22.66;41.43
30873;BME280;17579;42.690;2.586;2022-09-09T03:56:48;97141.94;;;22.64;41.41
30873;BME280;17579;42.690;2.586;2022-09-09T03:59:13;97132.44;;;22.62;41.53
30873;BME280;17579;42.690;2.586;2022-09-09T04:01:39;97129.75;;;22.62;41.42
30873;BME280;17579;42.690;2.586;2022-09-09T04:04:05;97136.41;;;22.59;41.38
30873;BME280;17579;42.690;2.586;2022-09-09T04:06:30;97129.56;;;22.57;41.52
30873;BME280;17579;42.690;2.586;2022-09-09T04:08:56;97132.50;;;22.55;41.62
30873;BME280;17579;42.690;2.586;2022-09-09T04:11:21;97134.38;;;22.55;41.93
30873;BME280;17579;42.690;2.586;2022-09-09T04:13:47;97135.88;;;22.51;41.90
30873;BME280;17579;42.690;2.586;2022-09-09T04:16:13;97138.78;;;22.49;41.80
30873;BME280;17579;42.690;2.586;2022-09-09T04:18:38;97141.50;;;22.49;41.76
30873;BME280;17579;42.690;2.586;2022-09-09T04:21:05;97146.66;;;22.51;41.76
30873;BME280;17579;42.690;2.586;2022-09-09T04:23:31;97143.16;;;22.50;42.42
30873;BME280;17579;42.690;2.586;2022-09-09T04:26:00;97134.44;;;22.48;42.13
30873;BME280;17579;42.690;2.586;2022-09-09T04:28:29;97139.03;;;22.47;42.42
30873;BME280;17579;42.690;2.586;2022-09-09T04:30:56;97137.97;;;22.48;42.45
30873;BME280;17579;42.690;2.586;2022-09-09T04:33:24;97136.31;;;22.47;42.37
30873;BME280;17579;42.690;2.586;2022-09-09T04:35:52;97138.78;;;22.49;42.47
30873;BME280;17579;42.690;2.586;2022-09-09T04:38:19;97137.59;;;22.45;42.52
30873;BME280;17579;42.690;2.586;2022-09-09T04:40:49;97138.03;;;22.42;42.42
30873;BME280;17579;42.690;2.586;2022-09-09T04:43:16;97142.16;;;22.44;42.85
30873;BME280;17579;42.690;2.586;2022-09-09T04:45:42;97139.69;;;22.43;42.96
30873;BME280;17579;42.690;2.586;2022-09-09T04:48:08;97141.31;;;22.44;43.15
30873;BME280;17579;42.690;2.586;2022-09-09T04:50:35;97147.56;;;22.44;43.32
30873;BME280;17579;42.690;2.586;2022-09-09T04:53:01;97141.09;;;22.45;42.95
30873;BME280;17579;42.690;2.586;2022-09-09T04:55:27;97142.97;;;22.45;43.01
30873;BME280;17579;42.690;2.586;2022-09-09T04:57:52;97146.50;;;22.45;42.99
30873;BME280;17579;42.690;2.586;2022-09-09T05:00:19;97148.16;;;22.46;43.34
30873;BME280;17579;42.690;2.586;2022-09-09T05:02:44;97143.16;;;22.50;43.38
30873;BME280;17579;42.690;2.586;2022-09-09T05:05:10;97149.56;;;22.49;43.27
30873;BME280;17579;42.690;2.586;2022-09-09T05:07:36;97149.34;;;22.51;43.48
30873;BME280;17579;42.690;2.586;2022-09-09T05:10:02;97155.56;;;22.51;43.35
30873;BME280;17579;42.690;2.586;2022-09-09T05:12:30;97150.56;;;22.55;43.59
30873;BME280;17579;42.690;2.586;2022-09-09T05:14:56;97153.84;;;22.57;43.23
30873;BME280;17579;42.690;2.586;2022-09-09T05:17:22;97154.91;;;22.56;43.13
30873;BME280;17579;42.690;2.586;2022-09-09T05:19:47;97158.19;;;22.58;43.46
30873;BME280;17579;42.690;2.586;2022-09-09T05:22:21;97158.41;;;22.56;43.59
30873;BME280;17579;42.690;2.586;2022-09-09T05:24:49;97160.66;;;22.59;43.55
30873;BME280;17579;42.690;2.586;2022-09-09T05:27:17;97167.47;;;22.62;43.30
30873;BME280;17579;42.690;2.586;2022-09-09T05:29:43;97169.72;;;22.65;43.38
30873;BME280;17579;42.690;2.586;2022-09-09T05:32:09;97173.03;;;22.67;43.45
30873;BME280;17579;42.690;2.586;2022-09-09T05:34:35;97172.81;;;22.69;43.50
30873;BME280;17579;42.690;2.586;2022-09-09T05:37:02;97170.09;;;22.69;43.58
30873;BME280;17579;42.690;2.586;2022-09-09T05:39:28;97174.66;;;22.68;43.28
30873;BME280;17579;42.690;2.586;2022-09-09T05:41:53;97180.28;;;22.66;43.90
30873;BME280;17579;42.690;2.586;2022-09-09T05:44:20;97174.88;;;22.66;43.48
30873;BME280;17579;42.690;2.586;2022-09-09T05:46:48;97181.31;;;22.65;43.63
30873;BME280;17579;42.690;2.586;2022-09-09T05:49:14;97176.16;;;22.64;43.99
30873;BME280;17579;42.690;2.586;2022-09-09T05:51:41;97174.28;;;22.64;43.80
30873;BME280;17579;42.690;2.586;2022-09-09T05:54:08;97176.78;;;22.66;44.08
30873;BME280;17579;42.690;2.586;2022-09-09T05:56:34;97177.59;;;22.66;44.26
30873;BME280;17579;42.690;2.586;2022-09-09T05:59:00;97181.53;;;22.64;44.05
30873;BME280;17579;42.690;2.586;2022-09-09T06:01:31;97186.56;;;22.60;44.55
30873;BME280;17579;42.690;2.586;2022-09-09T06:03:58;97182.69;;;22.56;44.34
30873;BME280;17579;42.690;2.586;2022-09-09T06:06:26;97176.69;;;22.54;44.38
30873;BME280;17579;42.690;2.586;2022-09-09T06:08:54;97188.50;;;22.53;44.39
30873;BME280;17579;42.690;2.586;2022-09-09T06:11:24;97191.44;;;22.52;44.62
30873;BME280;17579;42.690;2.586;2022-09-09T06:13:51;97190.81;;;22.49;44.81
30873;BME280;17579;42.690;2.586;2022-09-09T06:16:21;97194.13;;;22.52;44.66
30873;BME280;17579;42.690;2.586;2022-09-09T06:18:49;97195.97;;;22.51;44.62
30873;BME280;17579;42.690;2.586;2022-09-09T06:21:18;97199.75;;;22.50;44.88
30873;BME280;17579;42.690;2.586;2022-09-09T06:23:44;97190.59;;;22.51;44.80
30873;BME280;17579;42.690;2.586;2022-09-09T06:26:15;97201.81;;;22.48;44.97
30873;BME280;17579;42.690;2.586;2022-09-09T06:28:42;97196.81;;;22.52;44.85
30873;BME280;17579;42.690;2.586;2022-09-09T06:31:10;97208.41;;;22.52;45.12
30873;BME280;17579;42.690;2.586;2022-09-09T06:33:38;97210.56;;;22.69;45.04
30873;BME280;17579;42.690;2.586;2022-09-09T06:36:10;97209.59;;;22.81;44.97
30873;BME280;17579;42.690;2.586;2022-09-09T06:38:36;97207.00;;;22.87;44.72
30873;BME280;17579;42.690;2.586;2022-09-09T06:41:02;97205.97;;;23.06;44.31
30873;BME280;17579;42.690;2.586;2022-09-09T06:43:29;97211.38;;;23.55;43.88
30873;BME280;17579;42.690;2.586;2022-09-09T06:45:57;97217.28;;;24.06;42.89
30873;BME280;17579;42.690;2.586;2022-09-09T06:48:23;97216.25;;;24.54;42.11
30873;BME280;17579;42.690;2.586;2022-09-09T06:50:59;97208.75;;;24.68;41.71
30873;BME280;17579;42.690;2.586;2022-09-09T06:53:25;97215.78;;;24.58;42.27
30873;BME280;17579;42.690;2.586;2022-09-09T06:55:52;97219.53;;;24.56;41.73
30873;BME280;17579;42.690;2.586;2022-09-09T06:58:18;97222.16;;;24.63;42.09
30873;BME280;17579;42.690;2.586;2022-09-09T07:00:44;97214.63;;;24.77;41.72
30873;BME280;17579;42.690;2.586;2022-09-09T07:03:10;97219.66;;;24.85;41.45
30873;BME280;17579;42.690;2.586;2022-09-09T07:05:36;97220.81;;;24.89;40.88
30873;BME280;17579;42.690;2.586;2022-09-09T07:08:02;97230.09;;;25.05;40.61
30873;BME280;17579;42.690;2.586;2022-09-09T07:10:30;97229.16;;;25.52;40.44
30873;BME280;17579;42.690;2.586;2022-09-09T07:12:56;97227.41;;;25.75;40.35
30873;BME280;17579;42.690;2.586;2022-09-09T07:15:22;97232.91;;;25.80;39.96
30873;BME280;17579;42.690;2.586;2022-09-09T07:17:48;97235.78;;;25.73;40.28
30873;BME280;17579;42.690;2.586;2022-09-09T07:20:15;97226.06;;;25.61;40.04
30873;BME280;17579;42.690;2.586;2022-09-09T07:22:41;97227.44;;;25.46;40.09
30873;BME280;17579;42.690;2.586;2022-09-09T07:25:07;97231.94;;;25.29;40.11
30873;BME280;17579;42.690;2.586;2022-09-09T07:27:33;97233.59;;;25.18;40.32
30873;BME280;17579;42.690;2.586;2022-09-09T07:29:58;97234.81;;;25.10;40.80
30873;BME280;17579;42.690;2.586;2022-09-09T07:32:24;97230.22;;;25.11;40.40
30873;BME280;17579;42.690;2.586;2022-09-09T07:34:51;97226.94;;;25.08;40.49
30873;BME280;17579;42.690;2.586;2022-09-09T07:37:16;97230.25;;;24.99;40.05
30873;BME280;17579;42.690;2.586;2022-09-09T07:39:43;97235.69;;;24.87;40.31
30873;BME280;17579;42.690;2.586;2022-09-09T07:42:09;97234.13;;;24.79;40.60
30873;BME280;17579;42.690;2.586;2022-09-09T07:44:36;97233.09;;;24.80;40.58
30873;BME280;17579;42.690;2.586;2022-09-09T07:47:05;97238.50;;;24.80;40.43
30873;BME280;17579;42.690;2.586;2022-09-09T07:49:30;97232.13;;;24.86;40.46
30873;BME280;17579;42.690;2.586;2022-09-09T07:51:57;97236.63;;;24.93;40.34
30873;BME280;17579;42.690;2.586;2022-09-09T07:54:22;97247.28;;;24.99;40.05
30873;BME280;17579;42.690;2.586;2022-09-09T07:56:49;97244.34;;;25.01;40.25
30873;BME280;17579;42.690;2.586;2022-09-09T07:59:15;97240.59;;;25.02;39.93
30873;BME280;17579;42.690;2.586;2022-09-09T08:01:47;97243.38;;;25.19;40.28
30873;BME280;17579;42.690;2.586;2022-09-09T08:04:18;97243.31;;;25.42;39.75
30873;BME280;17579;42.690;2.586;2022-09-09T08:06:47;97241.03;;;25.63;39.62
30873;BME280;17579;42.690;2.586;2022-09-09T08:09:13;97237.19;;;25.93;38.86
30873;BME280;17579;42.690;2.586;2022-09-09T08:11:39;97230.69;;;26.23;38.33
30873;BME280;17579;42.690;2.586;2022-09-09T08:14:07;97235.19;;;26.51;38.44
30873;BME280;17579;42.690;2.586;2022-09-09T08:16:39;97232.50;;;26.68;37.64
30873;BME280;17579;42.690;2.586;2022-09-09T08:19:05;97230.81;;;26.84;37.32
30873;BME280;17579;42.690;2.586;2022-09-09T08:21:33;97231.47;;;26.91;37.07
30873;BME280;17579;42.690;2.586;2022-09-09T08:24:00;97226.28;;;27.12;37.06
30873;BME280;17579;42.690;2.586;2022-09-09T08:26:37;97237.22;;;27.17;37.16
30873;BME280;17579;42.690;2.586;2022-09-09T08:29:05;97237.59;;;27.26;36.33
30873;BME280;17579;42.690;2.586;2022-09-09T08:31:37;97232.09;;;27.21;36.94
30873;BME280;17579;42.690;2.586;2022-09-09T08:34:03;97237.09;;;27.29;36.39
30873;BME280;17579;42.690;2.586;2022-09-09T08:36:32;97230.88;;;27.34;36.22
30873;BME280;17579;42.690;2.586;2022-09-09T08:39:03;97237.41;;;27.33;36.23
30873;BME280;17579;42.690;2.586;2022-09-09T08:50:27;97241.06;;;27.21;36.51
30873;BME280;17579;42.690;2.586;2022-09-09T08:53:09;97249.47;;;27.20;36.63
30873;BME280;17579;42.690;2.586;2022-09-09T08:55:48;97247.69;;;27.30;35.84
30873;BME280;17579;42.690;2.586;2022-09-09T08:58:23;97252.56;;;27.28;35.98
30873;BME280;17579;42.690;2.586;2022-09-09T09:10:10;97262.78;;;27.21;35.82
30873;BME280;17579;42.690;2.586;2022-09-09T09:12:43;97264.03;;;27.13;35.68
30873;BME280;17579;42.690;2.586;2022-09-09T09:15:23;97273.19;;;27.07;36.14
30873;BME280;17579;42.690;2.586;2022-09-09T09:17:50;97269.91;;;27.27;35.56
30873;BME280;17579;42.690;2.586;2022-09-09T09:20:20;97269.56;;;27.41;35.47
30873;BME280;17579;42.690;2.586;2022-09-09T09:22:52;97272.59;;;27.44;35.39
30873;BME280;17579;42.690;2.586;2022-09-09T09:25:23;97285.84;;;27.41;35.29
30873;BME280;17579;42.690;2.586;2022-09-09T09:27:59;97284.06;;;27.29;35.19
30873;BME280;17579;42.690;2.586;2022-09-09T09:30:52;97294.34;;;27.27;35.76
30873;BME280;17579;42.690;2.586;2022-09-09T09:33:36;97298.97;;;27.27;35.70
30873;BME280;17579;42.690;2.586;2022-09-09T09:36:07;97302.47;;;27.44;35.29
30873;BME280;17579;42.690;2.586;2022-09-09T09:38:34;97297.47;;;27.58;34.97
30873;BME280;17579;42.690;2.586;2022-09-09T09:41:00;97291.28;;;27.63;34.48
30873;BME280;17579;42.690;2.586;2022-09-09T09:43:33;97297.16;;;27.55;35.01
30873;BME280;17579;42.690;2.586;2022-09-09T09:45:59;97293.34;;;27.78;34.84
30873;BME280;17579;42.690;2.586;2022-09-09T09:48:26;97297.69;;;28.01;34.73
30873;BME280;17579;42.690;2.586;2022-09-09T09:50:59;97294.59;;;28.20;34.67
30873;BME280;17579;42.690;2.586;2022-09-09T09:53:33;97306.69;;;28.29;34.46
30873;BME280;17579;42.690;2.586;2022-09-09T09:56:13;97299.75;;;28.48;34.24
30873;BME280;17579;42.690;2.586;2022-09-09T09:58:50;97298.56;;;28.66;34.02
30873;BME280;17579;42.690;2.586;2022-09-09T10:01:29;97296.31;;;28.96;34.12
30873;BME280;17579;42.690;2.586;2022-09-09T10:04:01;97307.69;;;29.25;33.26
30873;BME280;17579;42.690;2.586;2022-09-09T10:06:36;97311.78;;;29.33;32.82
30873;BME280;17579;42.690;2.586;2022-09-09T10:09:17;97301.19;;;29.42;32.54
30873;BME280;17579;42.690;2.586;2022-09-09T10:11:55;97306.19;;;29.60;32.94
30873;BME280;17579;42.690;2.586;2022-09-09T10:14:48;97308.94;;;29.70;32.02
30873;BME280;17579;42.690;2.586;2022-09-09T10:17:45;97311.63;;;29.60;32.34
30873;BME280;17579;42.690;2.586;2022-09-09T10:26:20;97308.56;;;28.98;32.56
30873;BME280;17579;42.690;2.586;2022-09-09T10:34:55;97313.63;;;28.79;32.70
30873;BME280;17579;42.690;2.586;2022-09-09T10:43:17;97311.56;;;28.59;32.47
30873;BME280;17579;42.690;2.586;2022-09-09T10:49:21;97297.00;;;28.76;32.92
30873;BME280;17579;42.690;2.586;2022-09-09T10:54:59;97301.97;;;29.27;32.55
30873;BME280;17579;42.690;2.586;2022-09-09T10:57:46;97297.25;;;29.17;32.43
30873;BME280;17579;42.690;2.586;2022-09-09T11:00:18;97292.34;;;29.19;32.31
30873;BME280;17579;42.690;2.586;2022-09-09T11:02:48;97293.44;;;29.18;32.05
30873;BME280;17579;42.690;2.586;2022-09-09T11:08:28;97280.34;;;29.15;32.20
30873;BME280;17579;42.690;2.586;2022-09-09T11:11:02;97278.03;;;29.39;32.24
30873;BME280;17579;42.690;2.586;2022-09-09T11:13:48;97280.78;;;29.44;32.61
30873;BME280;17579;42.690;2.586;2022-09-09T11:19:31;97292.63;;;28.75;32.65
30873;BME280;17579;42.690;2.586;2022-09-09T11:22:03;97296.75;;;28.45;33.16
30873;BME280;17579;42.690;2.586;2022-09-09T11:24:43;97298.63;;;28.12;33.54
30873;BME280;17579;42.690;2.586;2022-09-09T11:27:22;97292.69;;;27.93;33.80
30873;BME280;17579;42.690;2.586;2022-09-09T11:30:21;97301.13;;;27.69;33.84
30873;BME280;17579;42.690;2.586;2022-09-09T11:33:07;97295.34;;;27.60;34.70
30873;BME280;17579;42.690;2.586;2022-09-09T11:41:32;97295.78;;;27.52;34.73
30873;BME280;17579;42.690;2.586;2022-09-09T11:44:00;97295.25;;;27.55;34.78
30873;BME280;17579;42.690;2.586;2022-09-09T11:46:38;97293.94;;;27.58;34.57
30873;BME280;17579;42.690;2.586;2022-09-09T11:49:05;97293.16;;;27.62;34.99
30873;BME280;17579;42.690;2.586;2022-09-09T11:51:33;97297.78;;;27.62;34.76
30873;BME280;17579;42.690;2.586;2022-09-09T11:56:49;97300.44;;;27.79;34.93
30873;BME280;17579;42.690;2.586;2022-09-09T11:59:23;97300.47;;;27.84;34.64
30873;BME280;17579;42.690;2.586;2022-09-09T12:01:56;97306.16;;;28.05;34.39
30873;BME280;17579;42.690;2.586;2022-09-09T12:04:32;97307.53;;;28.07;34.41
30873;BME280;17579;42.690;2.586;2022-09-09T12:12:50;97298.22;;;27.98;34.51
30873;BME280;17579;42.690;2.586;2022-09-09T12:15:22;97304.06;;;27.90;34.70
30873;BME280;17579;42.690;2.586;2022-09-09T12:17:56;97316.59;;;27.91;34.46
30873;BME280;17579;42.690;2.586;2022-09-09T12:20:49;97317.28;;;27.81;34.76
30873;BME280;17579;42.690;2.586;2022-09-09T12:23:52;97315.28;;;27.71;34.55
30873;BME280;17579;42.690;2.586;2022-09-09T12:26:43;97321.69;;;27.60;35.07
30873;BME280;17579;42.690;2.586;2022-09-09T12:32:14;97323.06;;;27.62;35.20
30873;BME280;17579;42.690;2.586;2022-09-09T12:37:37;97327.69;;;27.62;35.41
30873;BME280;17579;42.690;2.586;2022-09-09T12:40:20;97327.31;;;27.53;35.64
30873;BME280;17579;42.690;2.586;2022-09-09T12:42:49;97325.47;;;27.59;35.86
30873;BME280;17579;42.690;2.586;2022-09-09T12:45:30;97323.75;;;27.53;35.97
30873;BME280;17579;42.690;2.586;2022-09-09T12:48:07;97324.00;;;27.51;35.93
30873;BME280;17579;42.690;2.586;2022-09-09T12:50:50;97328.00;;;27.43;35.93
30873;BME280;17579;42.690;2.586;2022-09-09T12:53:33;97325.28;;;27.43;36.28
30873;BME280;17579;42.690;2.586;2022-09-09T12:56:18;97323.16;;;27.28;36.18
30873;BME280;17579;42.690;2.586;2022-09-09T12:58:53;97330.81;;;27.31;36.37
30873;BME280;17579;42.690;2.586;2022-09-09T13:01:36;97338.47;;;27.35;36.54
30873;BME280;17579;42.690;2.586;2022-09-09T13:04:19;97317.38;;;27.42;36.81
30873;BME280;17579;42.690;2.586;2022-09-09T13:06:45;97329.91;;;27.43;36.79
30873;BME280;17579;42.690;2.586;2022-09-09T13:09:10;97333.84;;;27.35;36.83
30873;BME280;17579;42.690;2.586;2022-09-09T13:11:39;97322.06;;;27.29;36.80
30873;BME280;17579;42.690;2.586;2022-09-09T13:14:17;97332.25;;;27.17;37.51
30873;BME280;17579;42.690;2.586;2022-09-09T13:16:55;97332.03;;;27.24;37.77
30873;BME280;17579;42.690;2.586;2022-09-09T13:19:21;97332.13;;;27.29;37.72
30873;BME280;17579;42.690;2.586;2022-09-09T13:21:47;97340.78;;;27.26;37.35
30873;BME280;17579;42.690;2.586;2022-09-09T13:24:33;97335.63;;;27.07;37.30
30873;BME280;17579;42.690;2.586;2022-09-09T13:27:02;97329.69;;;27.10;37.92
30873;BME280;17579;42.690;2.586;2022-09-09T13:29:29;97336.28;;;26.97;37.84
30873;BME280;17579;42.690;2.586;2022-09-09T13:32:04;97333.59;;;26.80;38.22
30873;BME280;17579;42.690;2.586;2022-09-09T13:34:35;97331.06;;;26.74;38.38
30873;BME280;17579;42.690;2.586;2022-09-09T13:37:04;97316.66;;;26.73;38.30
30873;BME280;17579;42.690;2.586;2022-09-09T13:39:34;97318.38;;;26.62;38.98
30873;BME280;17579;42.690;2.586;2022-09-09T13:42:02;97321.41;;;26.66;39.01
30873;BME280;17579;42.690;2.586;2022-09-09T13:44:36;97327.81;;;26.43;39.29
30873;BME280;17579;42.690;2.586;2022-09-09T13:47:21;97323.13;;;26.38;39.56
30873;BME280;17579;42.690;2.586;2022-09-09T13:49:51;97325.19;;;26.31;39.74
30873;BME280;17579;42.690;2.586;2022-09-09T13:52:18;97320.88;;;26.18;39.90
30873;BME280;17579;42.690;2.586;2022-09-09T13:54:51;97320.06;;;25.89;39.69
30873;BME280;17579;42.690;2.586;2022-09-09T13:57:22;97315.44;;;25.61;40.85
30873;BME280;17579;42.690;2.586;2022-09-09T13:59:48;97315.94;;;25.46;41.62
30873;BME280;17579;42.690;2.586;2022-09-09T14:02:15;97317.97;;;25.27;41.48
30873;BME280;17579;42.690;2.586;2022-09-09T14:04:42;97324.81;;;25.05;41.74
30873;BME280;17579;42.690;2.586;2022-09-09T14:07:12;97320.94;;;24.89;41.77
30873;BME280;17579;42.690;2.586;2022-09-09T14:09:39;97323.88;;;24.76;42.67
30873;BME280;17579;42.690;2.586;2022-09-09T14:12:06;97323.41;;;24.67;42.75
30873;BME280;17579;42.690;2.586;2022-09-09T14:14:33;97329.03;;;24.66;42.67
30873;BME280;17579;42.690;2.586;2022-09-09T14:16:59;97315.75;;;24.64;42.56
30873;BME280;17579;42.690;2.586;2022-09-09T14:19:24;97329.34;;;24.58;42.70
30873;BME280;17579;42.690;2.586;2022-09-09T14:21:50;97332.03;;;24.46;42.93
30873;BME280;17579;42.690;2.586;2022-09-09T14:24:15;97332.59;;;24.36;43.61
30873;BME280;17579;42.690;2.586;2022-09-09T14:26:41;97330.84;;;24.30;43.39
30873;BME280;17579;42.690;2.586;2022-09-09T14:29:07;97337.16;;;24.24;43.57
30873;BME280;17579;42.690;2.586;2022-09-09T14:31:32;97334.44;;;24.24;43.54
30873;BME280;17579;42.690;2.586;2022-09-09T14:33:58;97338.94;;;24.18;43.42
30873;BME280;17579;42.690;2.586;2022-09-09T14:36:32;97335.34;;;24.06;43.72
30873;BME280;17579;42.690;2.586;2022-09-09T14:38:58;97337.00;;;24.07;43.90
30873;BME280;17579;42.690;2.586;2022-09-09T14:41:36;97334.16;;;24.01;43.51
30873;BME280;17579;42.690;2.586;2022-09-09T14:44:03;97347.66;;;24.01;44.35
30873;BME280;17579;42.690;2.586;2022-09-09T14:46:38;97342.00;;;23.91;44.04
30873;BME280;17579;42.690;2.586;2022-09-09T14:49:03;97337.41;;;23.92;44.25
30873;BME280;17579;42.690;2.586;2022-09-09T14:51:36;97339.56;;;23.83;43.97